Time;durP1;ratioP1;P1;durP2;ratioP2;P2;SDS_P1;SDS_P2;PMS_P1;PMS_P2;Temp;Humidity;BMP_temperature;BMP_pressure;BME280_temperature;BME280_humidity;BME280_pressure;Samples;Min_cycle;Max_cycle;Signal;HPM_P1;HPM_P2
2023/11/14 00:00:37;;;;;;;37.35;25.33;;;18.90;72.30;;;;;;4965534;28;20057;-81
2023/11/14 00:03:04;;;;;;;36.88;24.67;;;18.90;72.30;;;;;;4963061;28;20567;-81
2023/11/14 00:05:34;;;;;;;34.88;25.15;;;18.80;72.30;;;;;;4965645;28;20039;-82
2023/11/14 00:08:00;;;;;;;34.92;24.30;;;18.80;72.30;;;;;;4964839;28;20544;-82
2023/11/14 00:10:25;;;;;;;30.08;21.75;;;18.80;72.30;;;;;;4965809;28;20031;-81
2023/11/14 00:12:51;;;;;;;31.67;23.15;;;18.80;72.30;;;;;;4964120;28;20531;-80
2023/11/14 00:15:18;;;;;;;29.88;21.35;;;18.80;72.40;;;;;;4966235;28;20039;-81
2023/11/14 00:17:44;;;;;;;31.35;21.48;;;18.80;72.40;;;;;;4962338;28;20043;-80
2023/11/14 00:20:10;;;;;;;31.38;21.60;;;18.80;72.50;;;;;;4965477;28;20042;-81
2023/11/14 00:22:38;;;;;;;34.35;23.73;;;18.80;72.50;;;;;;4963863;28;20086;-81
2023/11/14 00:25:04;;;;;;;31.20;22.63;;;18.80;72.60;;;;;;4947263;28;20066;-81
2023/11/14 00:27:30;;;;;;;29.15;20.75;;;18.80;72.60;;;;;;4980578;28;20038;-83
2023/11/14 00:29:56;;;;;;;31.25;21.67;;;18.80;72.60;;;;;;4964120;28;20404;-82
2023/11/14 00:32:22;;;;;;;30.38;21.45;;;18.70;72.60;;;;;;4963644;28;20047;-82
2023/11/14 00:34:48;;;;;;;28.85;20.70;;;18.70;73.40;;;;;;4947247;28;20039;-81
2023/11/14 00:37:14;;;;;;;27.98;20.17;;;18.70;72.70;;;;;;4966633;28;20050;-82
2023/11/14 00:39:40;;;;;;;26.75;19.25;;;18.70;72.70;;;;;;4967026;28;20047;-82
2023/11/14 00:42:07;;;;;;;25.55;19.58;;;18.70;73.50;;;;;;4980881;28;20509;-81
2023/11/14 00:44:33;;;;;;;26.20;18.80;;;18.70;72.70;;;;;;4965121;28;20505;-82
2023/11/14 00:46:58;;;;;;;27.77;19.75;;;18.70;72.70;;;;;;4964543;28;20050;-82
2023/11/14 00:49:24;;;;;;;25.83;19.13;;;18.70;72.70;;;;;;4965154;28;20054;-82
2023/11/14 00:51:49;;;;;;;26.80;20.92;;;18.70;72.80;;;;;;4949257;28;20472;-82
2023/11/14 00:54:15;;;;;;;25.30;18.95;;;18.70;72.80;;;;;;4965891;28;20417;-82
2023/11/14 00:56:41;;;;;;;24.55;18.42;;;18.70;72.90;;;;;;4948699;28;20047;-82
2023/11/14 00:59:08;;;;;;;25.33;18.30;;;18.70;72.90;;;;;;4963123;28;20055;-80
2023/11/14 01:01:34;;;;;;;26.38;19.10;;;18.60;72.90;;;;;;4965715;28;20420;-82
2023/11/14 01:04:00;;;;;;;22.45;17.48;;;18.60;72.90;;;;;;4965175;28;20042;-81
2023/11/14 01:06:26;;;;;;;24.00;17.75;;;18.60;72.90;;;;;;4964476;28;20050;-81
2023/11/14 01:08:52;;;;;;;22.35;17.27;;;18.60;73.00;;;;;;4963887;28;20058;-83
2023/11/14 01:11:17;;;;;;;22.50;16.88;;;18.60;72.90;;;;;;4962967;28;20101;-82
2023/11/14 01:13:44;;;;;;;21.45;16.10;;;18.60;72.90;;;;;;4968456;28;20043;-82
2023/11/14 01:16:14;;;;;;;22.33;15.75;;;18.50;72.80;;;;;;4966131;28;20056;-81
2023/11/14 01:18:40;;;;;;;52.30;25.10;;;18.60;72.90;;;;;;4967484;28;20046;-81
2023/11/14 01:21:06;;;;;;;20.15;15.40;;;18.60;72.90;;;;;;4968088;28;20062;-81
2023/11/14 01:23:32;;;;;;;21.98;16.30;;;18.60;73.00;;;;;;4966304;28;20049;-83
2023/11/14 01:25:57;;;;;;;20.27;15.13;;;18.50;72.90;;;;;;4967623;28;20070;-84
2023/11/14 01:28:23;;;;;;;19.10;14.40;;;18.60;73.00;;;;;;4984655;28;20042;-84
2023/11/14 01:30:48;;;;;;;21.73;14.75;;;18.50;73.00;;;;;;4968835;28;20131;-81
2023/11/14 01:33:14;;;;;;;20.80;14.93;;;18.50;73.00;;;;;;4968432;28;20530;-83
2023/11/14 01:35:39;;;;;;;20.02;14.88;;;18.50;73.10;;;;;;4957162;28;20051;-83
2023/11/14 01:38:05;;;;;;;18.38;14.95;;;18.50;73.10;;;;;;4967803;28;20050;-83
2023/11/14 01:40:31;;;;;;;17.05;13.20;;;18.50;73.20;;;;;;4968799;28;20425;-83
2023/11/14 01:43:02;;;;;;;18.10;14.23;;;18.50;73.20;;;;;;4968173;28;20074;-83
2023/11/14 01:45:28;;;;;;;18.40;14.95;;;18.50;73.20;;;;;;4965680;28;20042;-83
2023/11/14 01:47:55;;;;;;;17.30;13.43;;;18.50;73.20;;;;;;4967050;28;20042;-83
2023/11/14 01:50:22;;;;;;;18.15;13.60;;;18.50;73.20;;;;;;4966444;28;20166;-83
2023/11/14 01:52:48;;;;;;;16.10;12.63;;;18.50;73.20;;;;;;4967810;28;20493;-82
2023/11/14 01:55:13;;;;;;;15.60;12.20;;;18.50;73.10;;;;;;4951557;28;20053;-83
2023/11/14 01:57:39;;;;;;;16.55;12.43;;;18.50;73.20;;;;;;4966395;28;20128;-83
2023/11/14 02:00:06;;;;;;;18.33;13.18;;;18.50;73.20;;;;;;4950485;28;20054;-83
2023/11/14 02:02:31;;;;;;;15.57;12.38;;;18.50;73.20;;;;;;4967392;28;20117;-83
2023/11/14 02:04:57;;;;;;;14.43;11.18;;;18.50;73.10;;;;;;4966611;28;20477;-82
2023/11/14 02:07:23;;;;;;;14.93;12.00;;;18.50;73.10;;;;;;4957099;28;20547;-82
2023/11/14 02:09:50;;;;;;;12.95;10.95;;;18.40;73.30;;;;;;4966152;28;20073;-83
2023/11/14 02:12:15;;;;;;;12.73;11.18;;;18.40;73.20;;;;;;4960469;28;20042;-83
2023/11/14 02:14:41;;;;;;;15.13;11.82;;;18.40;73.10;;;;;;4962756;28;20442;-83
2023/11/14 02:17:06;;;;;;;13.82;11.50;;;18.40;73.20;;;;;;4966066;28;20051;-83
2023/11/14 02:19:32;;;;;;;13.20;11.43;;;18.40;73.20;;;;;;4964153;28;20528;-82
2023/11/14 02:21:58;;;;;;;15.70;12.13;;;18.40;73.30;;;;;;4963758;28;20047;-83
2023/11/14 02:24:23;;;;;;;13.60;11.40;;;18.40;73.30;;;;;;4965032;28;20039;-83
2023/11/14 02:26:49;;;;;;;13.45;11.48;;;18.40;73.30;;;;;;4933234;28;20512;-83
2023/11/14 02:29:16;;;;;;;16.98;11.90;;;18.30;73.20;;;;;;4964601;28;20038;-83
2023/11/14 02:31:42;;;;;;;14.13;11.30;;;18.30;74.00;;;;;;4964414;28;20433;-83
2023/11/14 02:34:08;;;;;;;13.57;11.07;;;18.30;73.20;;;;;;4947344;28;20500;-81
2023/11/14 02:36:34;;;;;;;12.38;10.57;;;18.30;73.20;;;;;;4965869;28;20404;-81
2023/11/14 02:38:59;;;;;;;13.88;10.80;;;18.30;73.20;;;;;;4966512;28;20059;-81
2023/11/14 02:41:25;;;;;;;12.90;10.70;;;18.30;73.20;;;;;;4967560;28;20043;-81
2023/11/14 02:43:50;;;;;;;12.57;10.73;;;18.30;73.20;;;;;;4966645;28;20034;-81
2023/11/14 02:46:16;;;;;;;12.10;10.25;;;18.30;73.30;;;;;;4967952;28;20047;-81
2023/11/14 02:48:41;;;;;;;12.63;10.10;;;18.30;73.20;;;;;;4968177;28;20444;-81
2023/11/14 02:51:07;;;;;;;11.45;10.10;;;18.30;73.20;;;;;;4964991;28;20038;-81
2023/11/14 02:53:33;;;;;;;11.27;9.23;;;18.30;73.20;;;;;;4965223;28;20555;-81
2023/11/14 02:55:59;;;;;;;11.30;9.05;;;18.30;73.30;;;;;;4966949;28;20030;-81
2023/11/14 02:58:24;;;;;;;10.95;9.70;;;18.30;73.30;;;;;;4965401;28;20051;-81
2023/11/14 03:00:50;;;;;;;11.57;9.20;;;18.30;73.20;;;;;;4969083;28;20043;-81
2023/11/14 03:03:16;;;;;;;9.63;8.63;;;18.30;73.30;;;;;;4963799;28;20505;-81
2023/11/14 03:05:42;;;;;;;10.90;8.80;;;18.30;73.20;;;;;;4949697;28;20431;-81
2023/11/14 03:08:08;;;;;;;9.07;7.80;;;18.30;74.00;;;;;;4965937;28;20493;-81
2023/11/14 03:10:33;;;;;;;10.02;9.02;;;18.30;73.20;;;;;;4965402;28;20126;-81
2023/11/14 03:12:59;;;;;;;9.90;8.65;;;18.30;73.30;;;;;;4932881;28;20042;-81
2023/11/14 03:15:26;;;;;;;8.93;7.88;;;18.30;73.30;;;;;;4948153;28;20491;-80
2023/11/14 03:17:55;;;;;;;8.73;7.88;;;18.30;73.20;;;;;;4965854;28;20049;-80
2023/11/14 03:20:22;;;;;;;9.23;8.23;;;18.30;73.30;;;;;;4963188;28;20082;-81
2023/11/14 03:22:47;;;;;;;10.38;8.35;;;18.30;73.40;;;;;;4948506;28;20043;-81
2023/11/14 03:25:13;;;;;;;11.98;8.70;;;18.30;73.40;;;;;;4964445;28;20051;-80
2023/11/14 03:27:39;;;;;;;9.00;8.00;;;18.30;73.40;;;;;;4961174;28;20105;-80
2023/11/14 03:30:07;;;;;;;8.00;7.22;;;18.30;73.50;;;;;;4961213;28;20051;-80
2023/11/14 03:32:32;;;;;;;7.93;7.13;;;18.20;73.40;;;;;;4965535;28;20561;-81
2023/11/14 03:34:58;;;;;;;7.93;7.13;;;18.20;73.40;;;;;;4961232;28;20127;-80
2023/11/14 03:37:24;;;;;;;8.35;7.43;;;18.20;73.40;;;;;;4966458;28;20047;-80
2023/11/14 03:39:49;;;;;;;7.88;7.15;;;18.20;73.40;;;;;;4965173;28;20134;-81
2023/11/14 03:42:15;;;;;;;9.43;7.55;;;18.30;73.50;;;;;;4965070;28;20070;-80
2023/11/14 03:44:40;;;;;;;7.97;7.18;;;18.20;73.40;;;;;;4964263;28;20043;-80
2023/11/14 03:47:06;;;;;;;7.72;6.88;;;18.20;73.50;;;;;;4964843;28;20093;-80
2023/11/14 03:49:31;;;;;;;8.23;7.43;;;18.20;73.50;;;;;;4964868;28;20534;-80
2023/11/14 03:51:57;;;;;;;8.02;7.15;;;18.20;73.50;;;;;;4965892;28;20428;-80
2023/11/14 03:54:23;;;;;;;7.47;6.47;;;18.20;73.60;;;;;;4965754;28;20043;-80
2023/11/14 03:56:48;;;;;;;7.25;6.55;;;18.20;73.50;;;;;;4964932;28;20137;-80
2023/11/14 03:59:14;;;;;;;8.60;7.40;;;18.20;73.50;;;;;;4964790;28;20042;-80
2023/11/14 04:01:39;;;;;;;6.70;6.10;;;18.20;73.60;;;;;;4965447;28;20543;-80
2023/11/14 04:04:05;;;;;;;7.68;6.90;;;18.20;73.60;;;;;;4963210;28;20428;-80
2023/11/14 04:06:31;;;;;;;9.20;6.70;;;18.20;73.70;;;;;;4963783;28;20113;-81
2023/11/14 04:08:56;;;;;;;7.78;6.95;;;18.20;73.70;;;;;;4963381;28;20119;-80
2023/11/14 04:11:22;;;;;;;7.20;6.53;;;18.20;73.70;;;;;;4964756;28;20046;-80
2023/11/14 04:13:48;;;;;;;7.60;6.90;;;18.20;73.70;;;;;;4965629;28;20090;-80
2023/11/14 04:16:14;;;;;;;7.95;6.63;;;18.20;73.80;;;;;;4963362;28;20411;-80
2023/11/14 04:18:40;;;;;;;6.82;5.85;;;18.10;73.80;;;;;;4964191;28;20531;-80
2023/11/14 04:21:06;;;;;;;6.28;5.68;;;18.10;73.80;;;;;;4963033;28;20121;-81
2023/11/14 04:23:31;;;;;;;6.10;5.60;;;18.10;73.70;;;;;;4978089;28;20472;-82
2023/11/14 04:25:57;;;;;;;7.63;6.03;;;18.10;73.70;;;;;;4978744;28;20031;-82
2023/11/14 04:28:23;;;;;;;6.95;6.20;;;18.20;73.80;;;;;;4966153;28;20484;-82
2023/11/14 04:30:49;;;;;;;6.32;5.82;;;18.20;73.80;;;;;;4933624;28;20082;-82
2023/11/14 04:33:15;;;;;;;6.18;5.57;;;18.10;73.80;;;;;;4962729;28;20042;-82
2023/11/14 04:35:41;;;;;;;6.65;6.05;;;18.10;73.80;;;;;;4964846;28;20038;-83
2023/11/14 04:38:06;;;;;;;5.95;5.35;;;18.10;73.80;;;;;;4961679;28;20413;-81
2023/11/14 04:40:32;;;;;;;5.47;5.00;;;18.10;73.80;;;;;;4961393;28;20386;-82
2023/11/14 04:42:59;;;;;;;5.60;5.10;;;18.10;73.80;;;;;;4966262;28;20065;-82
2023/11/14 04:45:25;;;;;;;6.20;5.35;;;18.10;73.80;;;;;;4964933;28;20043;-82
2023/11/14 04:47:51;;;;;;;11.02;6.10;;;18.10;73.80;;;;;;4965215;28;20035;-82
2023/11/14 04:50:20;;;;;;;5.68;4.78;;;18.10;73.90;;;;;;4968259;28;20045;-82
2023/11/14 04:52:45;;;;;;;5.82;5.43;;;18.10;73.80;;;;;;4965346;28;20035;-82
2023/11/14 04:55:11;;;;;;;5.88;5.20;;;18.10;73.80;;;;;;4967171;28;20049;-82
2023/11/14 04:57:36;;;;;;;6.00;5.43;;;18.10;73.80;;;;;;4963833;28;20777;-82
2023/11/14 05:00:04;;;;;;;5.35;4.68;;;18.10;73.90;;;;;;4965675;28;20046;-81
2023/11/14 05:02:30;;;;;;;5.80;4.75;;;18.10;73.90;;;;;;4966110;28;20043;-82
2023/11/14 05:04:56;;;;;;;4.80;4.40;;;18.10;73.90;;;;;;4950873;28;20109;-84
2023/11/14 05:07:22;;;;;;;5.95;5.07;;;18.10;74.00;;;;;;4946454;28;20100;-83
2023/11/14 05:09:48;;;;;;;5.65;5.03;;;18.10;74.00;;;;;;4968511;28;20047;-83
2023/11/14 05:12:14;;;;;;;4.95;4.55;;;18.10;74.90;;;;;;4964959;28;20043;-83
2023/11/14 05:14:39;;;;;;;4.80;4.40;;;18.10;74.10;;;;;;4950664;28;20050;-83
2023/11/14 05:17:05;;;;;;;5.25;4.68;;;18.10;74.10;;;;;;4965922;28;20035;-83
2023/11/14 05:19:30;;;;;;;5.28;4.78;;;18.00;74.00;;;;;;4968278;28;20031;-83
2023/11/14 05:21:56;;;;;;;6.57;4.68;;;18.10;74.20;;;;;;4967883;28;20101;-84
2023/11/14 05:24:21;;;;;;;4.78;4.38;;;18.10;74.10;;;;;;4946537;28;20043;-84
2023/11/14 05:26:48;;;;;;;5.07;4.35;;;18.00;74.10;;;;;;4965899;28;20070;-82
2023/11/14 05:29:14;;;;;;;4.93;4.53;;;18.10;74.20;;;;;;4965681;28;20409;-82
2023/11/14 05:31:39;;;;;;;4.30;4.00;;;18.10;74.20;;;;;;4949923;28;20038;-81
2023/11/14 05:34:05;;;;;;;4.85;4.45;;;18.00;74.10;;;;;;4966731;28;20047;-80
2023/11/14 05:36:31;;;;;;;5.63;5.13;;;18.00;74.10;;;;;;4967713;28;20054;-80
2023/11/14 05:38:56;;;;;;;4.25;3.95;;;18.10;74.20;;;;;;4963423;28;20585;-81
2023/11/14 05:41:22;;;;;;;7.85;4.15;;;18.00;74.10;;;;;;4966893;28;20450;-81
2023/11/14 05:43:48;;;;;;;4.60;4.20;;;18.00;74.10;;;;;;4966645;28;20398;-81
2023/11/14 05:46:14;;;;;;;4.68;4.28;;;18.00;74.20;;;;;;4968850;28;20109;-81
2023/11/14 05:48:39;;;;;;;4.22;3.92;;;18.00;74.20;;;;;;4966537;28;20047;-81
2023/11/14 05:51:05;;;;;;;4.07;3.78;;;18.00;74.10;;;;;;4948299;28;20497;-82
2023/11/14 05:53:31;;;;;;;4.15;3.70;;;18.00;74.20;;;;;;4966714;28;20038;-82
2023/11/14 05:55:56;;;;;;;3.97;3.67;;;18.00;74.20;;;;;;4968422;28;20487;-81
2023/11/14 05:58:22;;;;;;;4.10;3.78;;;18.00;74.10;;;;;;4963818;28;20499;-81
2023/11/14 06:00:48;;;;;;;4.35;3.92;;;18.00;74.20;;;;;;4966225;28;20531;-81
2023/11/14 06:03:15;;;;;;;3.75;3.45;;;18.00;74.20;;;;;;4967287;28;20035;-82
2023/11/14 06:05:41;;;;;;;3.70;3.40;;;18.00;74.20;;;;;;4964806;28;20384;-81
2023/11/14 06:08:07;;;;;;;4.15;3.75;;;18.00;74.30;;;;;;4965212;28;20042;-82
2023/11/14 06:10:32;;;;;;;4.57;3.90;;;18.00;75.10;;;;;;4964781;28;20047;-82
2023/11/14 06:12:58;;;;;;;4.88;4.35;;;18.10;74.20;;;;;;4967405;28;20527;-82
2023/11/14 06:15:24;;;;;;;4.13;3.83;;;18.10;74.60;;;;;;4962738;28;20040;-87
2023/11/14 06:17:50;;;;;;;4.90;4.20;;;18.10;74.50;;;;;;4963048;28;20047;-83
2023/11/14 06:20:15;;;;;;;3.33;3.03;;;18.10;74.70;;;;;;4976631;28;20498;-83
2023/11/14 06:22:41;;;;;;;3.58;3.28;;;18.10;74.90;;;;;;4961621;28;20074;-82
2023/11/14 06:25:07;;;;;;;4.13;3.63;;;18.10;74.90;;;;;;4965297;28;20055;-82
2023/11/14 06:27:33;;;;;;;4.93;3.85;;;18.10;74.90;;;;;;4936422;28;20105;-84
2023/11/14 06:29:59;;;;;;;4.00;3.70;;;18.10;75.60;;;;;;4963050;28;20054;-83
2023/11/14 06:32:25;;;;;;;3.85;3.55;;;18.10;75.70;;;;;;4964719;28;20051;-82
2023/11/14 06:34:51;;;;;;;3.85;3.55;;;18.10;75.30;;;;;;4964896;28;20046;-83
2023/11/14 06:37:18;;;;;;;3.63;3.33;;;18.10;75.70;;;;;;4965363;28;20041;-83
2023/11/14 06:39:44;;;;;;;3.60;3.30;;;18.10;75.70;;;;;;4964336;28;20085;-83
2023/11/14 06:42:09;;;;;;;4.38;3.97;;;18.10;75.70;;;;;;4964027;28;20035;-83
2023/11/14 06:44:35;;;;;;;3.75;3.35;;;18.10;75.70;;;;;;4963284;28;20054;-83
2023/11/14 06:47:05;;;;;;;5.70;4.07;;;18.10;75.70;;;;;;4745271;28;10000547;-87
2023/11/14 06:49:30;;;;;;;3.72;3.35;;;18.10;75.70;;;;;;4959489;28;20250;-86
2023/11/14 06:51:56;;;;;;;5.32;3.58;;;18.10;75.70;;;;;;4960758;28;20050;-86
2023/11/14 06:54:22;;;;;;;3.58;3.03;;;18.10;75.70;;;;;;4957866;28;20428;-86
2023/11/14 06:56:47;;;;;;;3.58;3.28;;;18.10;75.70;;;;;;4957723;28;20097;-85
2023/11/14 06:59:13;;;;;;;3.60;3.30;;;18.10;75.80;;;;;;4921027;28;20038;-86
2023/11/14 07:01:38;;;;;;;4.45;3.17;;;18.10;75.80;;;;;;4958119;28;20527;-85
2023/11/14 07:04:04;;;;;;;3.10;2.85;;;18.10;75.70;;;;;;4960125;28;20035;-86
2023/11/14 07:06:30;;;;;;;4.00;3.30;;;18.10;75.70;;;;;;4955195;28;20047;-87
2023/11/14 07:08:56;;;;;;;3.20;3.00;;;18.10;75.80;;;;;;4957846;28;20504;-88
2023/11/14 07:11:22;;;;;;;3.45;2.80;;;18.10;75.70;;;;;;4950784;28;20037;-88
2023/11/14 07:13:48;;;;;;;4.45;2.80;;;18.10;75.80;;;;;;4945141;28;20038;-86
2023/11/14 07:16:13;;;;;;;3.25;2.78;;;18.10;75.70;;;;;;4961237;28;20038;-86
2023/11/14 07:18:40;;;;;;;3.08;2.80;;;18.10;75.70;;;;;;4957416;28;20057;-86
2023/11/14 07:21:06;;;;;;;8.45;3.00;;;18.10;75.70;;;;;;4957687;28;20137;-86
2023/11/14 07:23:31;;;;;;;2.83;2.63;;;18.10;75.70;;;;;;4940723;28;20485;-86
2023/11/14 07:25:57;;;;;;;3.83;2.92;;;18.10;75.60;;;;;;4941992;28;20039;-85
2023/11/14 07:28:23;;;;;;;2.72;2.50;;;18.10;75.60;;;;;;4962211;28;20042;-84
2023/11/14 07:30:49;;;;;;;3.10;2.80;;;18.10;75.60;;;;;;4945394;28;20050;-84
2023/11/14 07:33:15;;;;;;;2.80;2.60;;;18.10;75.40;;;;;;4944659;28;20145;-86
2023/11/14 07:35:40;;;;;;;2.83;2.63;;;18.10;75.20;;;;;;4940792;28;20142;-87
2023/11/14 07:38:06;;;;;;;2.70;2.50;;;18.10;75.30;;;;;;4959040;28;20426;-85
2023/11/14 07:40:33;;;;;;;3.25;2.40;;;18.10;75.50;;;;;;4941533;28;20063;-86
2023/11/14 07:43:03;;;;;;;2.55;2.35;;;18.10;75.30;;;;;;4926254;28;20110;-86
2023/11/14 07:45:29;;;;;;;2.78;2.58;;;18.10;75.30;;;;;;4960156;28;20177;-85
2023/11/14 07:47:55;;;;;;;2.80;2.55;;;18.10;75.30;;;;;;4962406;28;20035;-85
2023/11/14 07:50:20;;;;;;;2.60;2.40;;;18.10;75.20;;;;;;4962491;28;20035;-86
2023/11/14 07:52:46;;;;;;;2.75;2.38;;;18.10;75.30;;;;;;4948438;28;20058;-86
2023/11/14 07:55:12;;;;;;;2.85;2.10;;;18.10;75.20;;;;;;4964805;28;20118;-86
2023/11/14 07:57:38;;;;;;;2.53;2.33;;;18.10;75.30;;;;;;4945388;28;20059;-85
2023/11/14 08:00:07;;;;;;;2.85;2.53;;;18.10;75.30;;;;;;4964015;28;20035;-85
2023/11/14 08:02:33;;;;;;;3.15;2.55;;;18.10;75.40;;;;;;4960744;28;20052;-86
2023/11/14 08:04:58;;;;;;;2.60;2.40;;;18.10;75.40;;;;;;4961256;28;20109;-87
2023/11/14 08:07:24;;;;;;;2.17;2.00;;;18.10;75.40;;;;;;4960342;28;20408;-83
2023/11/14 08:09:49;;;;;;;4.03;2.47;;;18.10;75.30;;;;;;4964340;28;20042;-84
2023/11/14 08:12:15;;;;;;;2.47;2.28;;;18.10;75.40;;;;;;4957241;28;20046;-84
2023/11/14 08:14:41;;;;;;;2.53;2.33;;;18.10;75.40;;;;;;4963193;28;20054;-85
2023/11/14 08:17:06;;;;;;;2.42;2.22;;;18.00;75.30;;;;;;4965643;28;20425;-85
2023/11/14 08:19:32;;;;;;;3.78;2.65;;;18.10;75.40;;;;;;4963289;28;20402;-84
2023/11/14 08:22:03;;;;;;;2.03;1.92;;;18.00;75.40;;;;;;4967094;28;20093;-85
2023/11/14 08:24:29;;;;;;;3.08;2.20;;;18.00;75.50;;;;;;4982475;28;20046;-84
2023/11/14 08:26:54;;;;;;;2.05;1.92;;;18.10;75.30;;;;;;4967787;28;20046;-85
2023/11/14 08:29:20;;;;;;;2.60;1.92;;;18.00;75.40;;;;;;4962797;28;20461;-84
2023/11/14 08:31:46;;;;;;;1.80;1.70;;;18.00;75.40;;;;;;4968104;28;20509;-84
2023/11/14 08:34:12;;;;;;;5.60;2.67;;;18.00;75.30;;;;;;4967209;28;20093;-84
2023/11/14 08:36:38;;;;;;;2.28;2.08;;;18.00;75.20;;;;;;4966816;28;20054;-84
2023/11/14 08:39:04;;;;;;;2.45;2.10;;;18.00;75.20;;;;;;4964014;28;20109;-85
2023/11/14 08:41:30;;;;;;;2.25;2.10;;;18.00;75.20;;;;;;4969136;28;20062;-85
2023/11/14 08:43:57;;;;;;;2.03;1.73;;;18.00;75.20;;;;;;4969098;28;20043;-85
2023/11/14 08:46:22;;;;;;;1.92;1.80;;;18.00;75.20;;;;;;4964417;28;20182;-84
2023/11/14 08:48:48;;;;;;;3.05;1.73;;;18.00;75.20;;;;;;4969280;28;20123;-85
2023/11/14 08:51:17;;;;;;;2.33;2.03;;;18.00;75.20;;;;;;4966994;28;20726;-84
2023/11/14 08:53:45;;;;;;;1.60;1.50;;;18.00;75.20;;;;;;4968574;28;20054;-85
2023/11/14 08:56:10;;;;;;;1.92;1.83;;;18.00;75.30;;;;;;4967239;28;20037;-85
2023/11/14 08:58:36;;;;;;;1.98;1.80;;;18.00;75.20;;;;;;4963985;28;20059;-85
2023/11/14 09:01:03;;;;;;;1.60;1.50;;;18.00;75.20;;;;;;4963856;28;20131;-85
2023/11/14 09:03:29;;;;;;;2.22;2.03;;;18.00;75.20;;;;;;4965190;28;20042;-85
2023/11/14 09:05:54;;;;;;;1.75;1.65;;;18.00;75.20;;;;;;4982251;28;20580;-85
2023/11/14 09:08:20;;;;;;;1.55;1.45;;;18.00;76.00;;;;;;4967065;28;20576;-84
2023/11/14 09:10:46;;;;;;;1.88;1.77;;;18.00;75.20;;;;;;4966494;28;20034;-84
2023/11/14 09:13:12;;;;;;;1.92;1.80;;;18.00;75.20;;;;;;4966555;28;20035;-85
2023/11/14 09:15:39;;;;;;;1.70;1.60;;;18.00;75.10;;;;;;4965541;28;20038;-85
2023/11/14 09:18:04;;;;;;;1.63;1.52;;;18.00;75.10;;;;;;4968424;28;20094;-85
2023/11/14 09:20:30;;;;;;;1.40;1.30;;;18.00;75.10;;;;;;4966899;28;20043;-85
2023/11/14 09:22:56;;;;;;;1.90;1.80;;;18.00;75.20;;;;;;4956640;28;20501;-85
2023/11/14 09:25:22;;;;;;;1.80;1.50;;;18.00;75.10;;;;;;4966404;28;20077;-85
2023/11/14 09:27:47;;;;;;;1.60;1.50;;;18.00;75.00;;;;;;4966975;28;20070;-85
2023/11/14 09:30:14;;;;;;;2.00;1.67;;;18.00;75.90;;;;;;4963358;28;20413;-85
2023/11/14 09:32:42;;;;;;;2.92;1.70;;;18.00;75.00;;;;;;4960221;28;20097;-85
2023/11/14 09:35:10;;;;;;;2.65;1.50;;;18.00;75.10;;;;;;4964988;28;20051;-85
2023/11/14 09:37:36;;;;;;;1.67;1.33;;;18.00;75.10;;;;;;4966150;28;20181;-85
2023/11/14 09:40:04;;;;;;;1.73;1.50;;;18.00;75.10;;;;;;4952890;28;20516;-85
2023/11/14 09:42:30;;;;;;;1.67;1.58;;;18.00;75.10;;;;;;4969210;28;20074;-84
2023/11/14 09:44:55;;;;;;;1.48;1.30;;;18.00;75.20;;;;;;4969881;28;20081;-85
2023/11/14 09:47:21;;;;;;;1.90;1.48;;;18.00;75.10;;;;;;4958733;28;20043;-84
2023/11/14 09:49:47;;;;;;;1.90;1.60;;;18.00;75.10;;;;;;4966229;28;20050;-85
2023/11/14 09:52:12;;;;;;;1.63;1.23;;;18.00;75.00;;;;;;4965037;28;20648;-85
2023/11/14 09:54:41;;;;;;;1.70;1.35;;;18.00;75.00;;;;;;4962270;28;20051;-85
2023/11/14 09:57:11;;;;;;;1.80;1.45;;;18.00;75.00;;;;;;4967453;28;20130;-85
2023/11/14 09:59:37;;;;;;;1.20;1.10;;;18.00;75.00;;;;;;4964323;28;20420;-85
2023/11/14 10:02:03;;;;;;;1.40;1.30;;;18.00;74.90;;;;;;4966301;28;20042;-85
2023/11/14 10:04:29;;;;;;;1.38;1.27;;;18.00;75.00;;;;;;4949436;28;20479;-85
2023/11/14 10:06:55;;;;;;;1.65;1.27;;;18.00;74.90;;;;;;4951556;28;20242;-85
2023/11/14 10:09:20;;;;;;;2.00;1.80;;;18.00;75.00;;;;;;4965162;28;20563;-82
2023/11/14 10:11:47;;;;;;;1.25;1.15;;;18.00;74.90;;;;;;4950238;28;20047;-85
2023/11/14 10:14:13;;;;;;;1.55;1.45;;;18.00;75.00;;;;;;4966224;28;20050;-85
2023/11/14 10:16:38;;;;;;;1.10;1.00;;;18.00;75.00;;;;;;4966428;28;20061;-86
2023/11/14 10:19:14;;;;;;;1.75;1.23;;;18.00;75.00;;;;;;4969677;28;20039;-85
2023/11/14 10:21:40;;;;;;;1.30;1.20;;;18.00;75.00;;;;;;4967498;28;20051;-85
2023/11/14 10:24:12;;;;;;;1.73;1.50;;;18.00;75.00;;;;;;4965933;28;20374;-85
2023/11/14 10:26:52;;;;;;;1.75;1.42;;;17.90;75.00;;;;;;4965117;28;20050;-85
2023/11/14 10:29:18;;;;;;;1.55;1.10;;;18.00;75.10;;;;;;4949804;28;20048;-85
2023/11/14 10:31:43;;;;;;;1.30;1.20;;;18.00;75.10;;;;;;4960236;28;20043;-85
2023/11/14 10:34:29;;;;;;;1.48;1.08;;;18.00;75.90;;;;;;4968589;28;20054;-85
2023/11/14 10:36:55;;;;;;;1.38;1.00;;;17.90;75.00;;;;;;4968869;28;20053;-85
2023/11/14 10:39:22;;;;;;;1.20;1.10;;;17.90;75.00;;;;;;4963903;28;20120;-85
2023/11/14 10:41:49;;;;;;;1.20;1.10;;;18.00;75.10;;;;;;4978914;28;20189;-85
2023/11/14 10:44:14;;;;;;;1.00;0.80;;;18.00;75.10;;;;;;4967988;28;20540;-85
2023/11/14 10:46:53;;;;;;;1.42;1.30;;;17.90;75.00;;;;;;4964840;28;20042;-85
2023/11/14 10:49:23;;;;;;;1.50;1.35;;;18.00;75.00;;;;;;4966068;28;20528;-85
2023/11/14 10:51:49;;;;;;;1.48;1.17;;;18.00;75.00;;;;;;4966870;28;20055;-85
2023/11/14 10:54:15;;;;;;;1.33;1.20;;;18.00;75.10;;;;;;4965386;28;20035;-84
2023/11/14 10:56:41;;;;;;;1.58;1.20;;;18.00;75.10;;;;;;4963963;28;20104;-85
2023/11/14 10:59:10;;;;;;;1.15;1.05;;;18.00;75.20;;;;;;4616696;28;9999811;-85
2023/11/14 11:01:36;;;;;;;3.58;1.83;;;18.00;75.10;;;;;;4943738;28;20577;-89
2023/11/14 11:04:02;;;;;;;7.57;2.55;;;18.00;75.10;;;;;;4971420;28;20054;-89
2023/11/14 11:06:28;;;;;;;5.78;2.13;;;18.00;75.30;;;;;;4962562;28;20054;-88
2023/11/14 11:08:54;;;;;;;3.25;1.75;;;18.00;75.20;;;;;;4959737;28;20039;-86
2023/11/14 11:11:25;;;;;;;1.52;1.27;;;18.00;75.30;;;;;;4963382;28;20332;-91
2023/11/14 11:13:51;;;;;;;3.92;2.45;;;18.10;78.00;;;;;;4935289;28;20039;-89
2023/11/14 11:16:45;;;;;;;4.22;2.83;;;18.20;81.90;;;;;;4963738;28;20131;-92
2023/11/14 11:19:28;;;;;;;4.18;2.10;;;18.20;80.30;;;;;;4964642;28;20107;-90
2023/11/14 11:22:04;;;;;;;2.20;1.48;;;18.10;79.50;;;;;;4942931;28;20066;-92
2023/11/14 11:24:30;;;;;;;1.60;1.48;;;18.10;78.40;;;;;;4963501;28;20425;-87
2023/11/14 11:27:20;;;;;;;2.38;1.65;;;18.10;78.40;;;;;;4962107;28;20125;-90
2023/11/14 11:29:50;;;;;;;3.28;1.70;;;18.10;78.00;;;;;;4963136;28;20105;-88
2023/11/14 11:32:23;;;;;;;2.13;1.52;;;18.20;77.60;;;;;;4963565;28;20038;-89
2023/11/14 11:35:18;;;;;;;1.55;1.45;;;18.20;77.30;;;;;;4946396;28;20504;-91
2023/11/14 11:38:08;;;;;;;1.63;1.38;;;18.20;77.40;;;;;;4963110;28;20047;-91
2023/11/14 11:40:34;;;;;;;4.15;1.35;;;18.20;77.30;;;;;;4959983;28;20512;-91
2023/11/14 11:43:12;;;;;;;2.25;1.45;;;18.10;77.10;;;;;;4966186;28;20146;-89
2023/11/14 11:45:39;;;;;;;1.45;1.25;;;18.10;77.00;;;;;;4961098;28;20050;-90
2023/11/14 11:48:26;;;;;;;1.92;1.15;;;18.10;77.00;;;;;;4944883;28;20073;-90
2023/11/14 11:50:52;;;;;;;1.58;1.25;;;18.10;76.90;;;;;;4961898;28;21087;-88
2023/11/14 11:53:36;;;;;;;2.78;1.10;;;18.10;77.00;;;;;;4960301;28;20073;-88
2023/11/14 11:56:05;;;;;;;1.30;1.20;;;18.10;76.80;;;;;;4945285;28;20050;-87
2023/11/14 11:58:47;;;;;;;1.42;1.08;;;18.10;76.80;;;;;;4960775;28;20051;-88
2023/11/14 12:01:14;;;;;;;2.22;1.20;;;18.10;76.80;;;;;;4942520;28;20042;-86
2023/11/14 12:03:39;;;;;;;1.60;1.13;;;18.10;76.60;;;;;;4950336;28;20070;-87
2023/11/14 12:06:09;;;;;;;1.60;1.33;;;18.10;76.80;;;;;;4966632;28;20114;-89
2023/11/14 12:08:37;;;;;;;2.28;1.27;;;18.10;76.60;;;;;;4965108;28;20533;-89
2023/11/14 12:11:04;;;;;;;4.47;1.00;;;18.10;76.50;;;;;;4962283;28;20105;-89
2023/11/14 12:13:29;;;;;;;2.22;1.08;;;18.10;76.50;;;;;;4950416;28;20031;-87
2023/11/14 12:15:56;;;;;;;1.10;0.88;;;18.10;76.40;;;;;;4932270;28;20031;-86
2023/11/14 12:18:22;;;;;;;1.80;1.02;;;18.10;76.40;;;;;;4965492;28;20125;-87
2023/11/14 12:20:48;;;;;;;2.00;1.00;;;18.10;76.30;;;;;;4966484;28;20789;-87
2023/11/14 12:23:14;;;;;;;1.10;1.00;;;18.10;76.00;;;;;;4965314;28;20043;-88
2023/11/14 12:25:39;;;;;;;1.35;0.90;;;18.10;76.10;;;;;;4932993;28;20248;-88
2023/11/14 12:28:05;;;;;;;0.80;0.73;;;18.10;76.10;;;;;;4963701;28;20035;-88
2023/11/14 12:30:30;;;;;;;0.98;0.88;;;18.20;76.00;;;;;;4607183;28;10000219;-89
2023/11/14 12:33:05;;;;;;;1.85;0.90;;;18.20;75.70;;;;;;4614841;28;9999814;-88
2023/11/14 12:35:47;;;;;;;1.20;0.90;;;18.30;75.60;;;;;;4939125;28;20051;-86
2023/11/14 12:38:13;;;;;;;1.02;0.82;;;18.30;75.40;;;;;;4939616;28;20047;-86